sensor_id;sensor_type;location;lat;lon;timestamp;P1;durP1;ratioP1;P2;durP2;ratioP2
52468;SDS011;38381;53.688;10.776;2022-09-29T00:04:21;17.30;;;11.73;;
52468;SDS011;38381;53.688;10.776;2022-09-29T00:09:21;14.43;;;11.70;;
52468;SDS011;38381;53.688;10.776;2022-09-29T00:14:22;15.10;;;10.90;;
52468;SDS011;38381;53.688;10.776;2022-09-29T00:19:22;11.32;;;9.93;;
52468;SDS011;38381;53.688;10.776;2022-09-29T00:24:23;16.20;;;12.77;;
52468;SDS011;38381;53.688;10.776;2022-09-29T00:29:23;15.80;;;11.70;;
52468;SDS011;38381;53.688;10.776;2022-09-29T00:34:23;13.18;;;11.02;;
52468;SDS011;38381;53.688;10.776;2022-09-29T00:39:24;11.32;;;9.60;;
52468;SDS011;38381;53.688;10.776;2022-09-29T01:00:30;13.40;;;9.65;;
52468;SDS011;38381;53.688;10.776;2022-09-29T01:05:32;11.25;;;10.10;;
52468;SDS011;38381;53.688;10.776;2022-09-29T01:10:36;11.90;;;9.13;;
52468;SDS011;38381;53.688;10.776;2022-09-29T01:15:39;11.32;;;9.55;;
52468;SDS011;38381;53.688;10.776;2022-09-29T01:20:47;11.70;;;9.27;;
52468;SDS011;38381;53.688;10.776;2022-09-29T01:32:14;10.18;;;8.90;;
52468;SDS011;38381;53.688;10.776;2022-09-29T01:37:30;10.65;;;9.13;;
52468;SDS011;38381;53.688;10.776;2022-09-29T01:48:08;14.45;;;10.50;;
52468;SDS011;38381;53.688;10.776;2022-09-29T01:53:28;14.07;;;9.65;;
52468;SDS011;38381;53.688;10.776;2022-09-29T01:58:42;11.38;;;9.73;;
52468;SDS011;38381;53.688;10.776;2022-09-29T02:09:01;12.90;;;10.13;;
52468;SDS011;38381;53.688;10.776;2022-09-29T02:14:11;14.02;;;10.77;;
52468;SDS011;38381;53.688;10.776;2022-09-29T02:19:18;12.15;;;10.32;;
52468;SDS011;38381;53.688;10.776;2022-09-29T02:24:21;12.35;;;9.55;;
52468;SDS011;38381;53.688;10.776;2022-09-29T02:29:32;18.70;;;10.82;;
52468;SDS011;38381;53.688;10.776;2022-09-29T02:34:37;13.75;;;10.30;;
52468;SDS011;38381;53.688;10.776;2022-09-29T02:45:29;12.27;;;11.00;;
52468;SDS011;38381;53.688;10.776;2022-09-29T02:51:12;20.75;;;9.73;;
52468;SDS011;38381;53.688;10.776;2022-09-29T03:01:46;11.50;;;9.43;;
52468;SDS011;38381;53.688;10.776;2022-09-29T03:06:51;11.02;;;9.20;;
52468;SDS011;38381;53.688;10.776;2022-09-29T03:11:51;11.65;;;10.50;;
52468;SDS011;38381;53.688;10.776;2022-09-29T03:16:52;9.82;;;8.57;;
52468;SDS011;38381;53.688;10.776;2022-09-29T03:21:52;16.98;;;12.05;;
52468;SDS011;38381;53.688;10.776;2022-09-29T03:26:52;12.00;;;9.70;;
52468;SDS011;38381;53.688;10.776;2022-09-29T03:31:53;12.43;;;10.10;;
52468;SDS011;38381;53.688;10.776;2022-09-29T03:36:53;14.48;;;9.50;;
52468;SDS011;38381;53.688;10.776;2022-09-29T03:41:53;13.93;;;10.17;;
52468;SDS011;38381;53.688;10.776;2022-09-29T03:46:54;14.52;;;9.55;;
52468;SDS011;38381;53.688;10.776;2022-09-29T03:51:55;14.00;;;11.07;;
52468;SDS011;38381;53.688;10.776;2022-09-29T03:57:13;14.35;;;11.68;;
52468;SDS011;38381;53.688;10.776;2022-09-29T04:03:02;12.82;;;10.32;;
52468;SDS011;38381;53.688;10.776;2022-09-29T04:08:06;15.02;;;10.23;;
52468;SDS011;38381;53.688;10.776;2022-09-29T04:13:07;14.60;;;10.20;;
52468;SDS011;38381;53.688;10.776;2022-09-29T04:18:08;14.48;;;11.50;;
52468;SDS011;38381;53.688;10.776;2022-09-29T04:23:08;14.68;;;12.00;;
52468;SDS011;38381;53.688;10.776;2022-09-29T04:28:09;13.93;;;11.23;;
52468;SDS011;38381;53.688;10.776;2022-09-29T04:33:09;15.90;;;11.45;;
52468;SDS011;38381;53.688;10.776;2022-09-29T04:38:09;15.15;;;10.40;;
52468;SDS011;38381;53.688;10.776;2022-09-29T04:43:10;12.23;;;10.13;;
52468;SDS011;38381;53.688;10.776;2022-09-29T04:48:10;12.57;;;9.60;;
52468;SDS011;38381;53.688;10.776;2022-09-29T04:53:10;14.73;;;9.75;;
52468;SDS011;38381;53.688;10.776;2022-09-29T04:58:11;14.95;;;11.18;;
52468;SDS011;38381;53.688;10.776;2022-09-29T05:03:11;13.75;;;10.05;;
52468;SDS011;38381;53.688;10.776;2022-09-29T05:08:11;14.88;;;10.55;;
52468;SDS011;38381;53.688;10.776;2022-09-29T05:13:12;14.55;;;10.52;;
52468;SDS011;38381;53.688;10.776;2022-09-29T05:18:12;14.40;;;11.07;;
52468;SDS011;38381;53.688;10.776;2022-09-29T05:23:24;15.82;;;9.68;;
52468;SDS011;38381;53.688;10.776;2022-09-29T05:28:25;13.65;;;10.88;;
52468;SDS011;38381;53.688;10.776;2022-09-29T05:33:26;13.23;;;11.35;;
52468;SDS011;38381;53.688;10.776;2022-09-29T05:38:26;17.13;;;10.93;;
52468;SDS011;38381;53.688;10.776;2022-09-29T05:43:27;16.20;;;10.27;;
52468;SDS011;38381;53.688;10.776;2022-09-29T05:48:28;15.15;;;10.98;;
52468;SDS011;38381;53.688;10.776;2022-09-29T05:53:29;15.13;;;11.35;;
52468;SDS011;38381;53.688;10.776;2022-09-29T05:58:29;15.10;;;11.18;;
52468;SDS011;38381;53.688;10.776;2022-09-29T06:03:31;14.77;;;10.77;;
52468;SDS011;38381;53.688;10.776;2022-09-29T06:08:33;17.15;;;10.82;;
52468;SDS011;38381;53.688;10.776;2022-09-29T06:13:36;17.60;;;13.00;;
52468;SDS011;38381;53.688;10.776;2022-09-29T06:18:40;15.25;;;11.15;;
52468;SDS011;38381;53.688;10.776;2022-09-29T06:23:45;16.60;;;14.20;;
52468;SDS011;38381;53.688;10.776;2022-09-29T06:28:46;13.13;;;11.07;;
52468;SDS011;38381;53.688;10.776;2022-09-29T06:33:47;14.52;;;11.25;;
52468;SDS011;38381;53.688;10.776;2022-09-29T06:38:47;20.30;;;14.13;;
52468;SDS011;38381;53.688;10.776;2022-09-29T06:43:47;17.63;;;13.18;;
52468;SDS011;38381;53.688;10.776;2022-09-29T06:48:48;15.93;;;12.23;;
52468;SDS011;38381;53.688;10.776;2022-09-29T06:53:49;19.13;;;13.40;;
52468;SDS011;38381;53.688;10.776;2022-09-29T06:58:49;18.80;;;14.80;;
52468;SDS011;38381;53.688;10.776;2022-09-29T07:03:49;17.52;;;12.55;;
52468;SDS011;38381;53.688;10.776;2022-09-29T07:08:52;19.92;;;14.63;;
52468;SDS011;38381;53.688;10.776;2022-09-29T07:13:53;21.05;;;12.98;;
52468;SDS011;38381;53.688;10.776;2022-09-29T07:18:54;17.58;;;13.90;;
52468;SDS011;38381;53.688;10.776;2022-09-29T07:23:54;16.30;;;14.38;;
52468;SDS011;38381;53.688;10.776;2022-09-29T07:28:55;18.65;;;14.50;;
52468;SDS011;38381;53.688;10.776;2022-09-29T07:38:57;19.30;;;15.95;;
52468;SDS011;38381;53.688;10.776;2022-09-29T07:43:58;21.35;;;16.30;;
52468;SDS011;38381;53.688;10.776;2022-09-29T07:48:58;20.50;;;16.23;;
52468;SDS011;38381;53.688;10.776;2022-09-29T07:54:02;22.55;;;15.13;;
52468;SDS011;38381;53.688;10.776;2022-09-29T07:59:03;18.77;;;15.35;;
52468;SDS011;38381;53.688;10.776;2022-09-29T08:04:04;18.83;;;15.30;;
52468;SDS011;38381;53.688;10.776;2022-09-29T08:09:05;20.13;;;16.17;;
52468;SDS011;38381;53.688;10.776;2022-09-29T08:14:05;20.42;;;14.32;;
52468;SDS011;38381;53.688;10.776;2022-09-29T08:19:07;15.10;;;13.27;;
52468;SDS011;38381;53.688;10.776;2022-09-29T08:24:08;15.93;;;12.25;;
52468;SDS011;38381;53.688;10.776;2022-09-29T08:29:12;18.17;;;11.95;;
52468;SDS011;38381;53.688;10.776;2022-09-29T08:34:13;15.18;;;12.55;;
52468;SDS011;38381;53.688;10.776;2022-09-29T08:39:14;12.80;;;11.43;;
52468;SDS011;38381;53.688;10.776;2022-09-29T08:44:17;12.80;;;11.17;;
52468;SDS011;38381;53.688;10.776;2022-09-29T08:49:27;14.43;;;11.07;;
52468;SDS011;38381;53.688;10.776;2022-09-29T08:54:39;14.05;;;12.02;;
52468;SDS011;38381;53.688;10.776;2022-09-29T08:59:41;14.63;;;12.75;;
52468;SDS011;38381;53.688;10.776;2022-09-29T09:04:57;14.77;;;13.15;;
52468;SDS011;38381;53.688;10.776;2022-09-29T09:21:08;10.20;;;9.00;;
52468;SDS011;38381;53.688;10.776;2022-09-29T09:26:16;10.95;;;8.20;;
52468;SDS011;38381;53.688;10.776;2022-09-29T09:31:25;9.23;;;8.35;;
52468;SDS011;38381;53.688;10.776;2022-09-29T09:36:40;10.13;;;7.78;;
52468;SDS011;38381;53.688;10.776;2022-09-29T09:41:45;10.23;;;7.85;;
52468;SDS011;38381;53.688;10.776;2022-09-29T09:46:57;10.23;;;7.00;;
52468;SDS011;38381;53.688;10.776;2022-09-29T09:57:59;8.80;;;7.90;;
52468;SDS011;38381;53.688;10.776;2022-09-29T10:03:24;8.30;;;7.07;;
52468;SDS011;38381;53.688;10.776;2022-09-29T10:08:27;11.15;;;8.52;;
52468;SDS011;38381;53.688;10.776;2022-09-29T10:13:30;9.23;;;6.88;;
52468;SDS011;38381;53.688;10.776;2022-09-29T10:18:35;9.93;;;6.85;;
52468;SDS011;38381;53.688;10.776;2022-09-29T10:23:39;10.82;;;6.68;;
52468;SDS011;38381;53.688;10.776;2022-09-29T10:28:54;6.53;;;5.80;;
52468;SDS011;38381;53.688;10.776;2022-09-29T10:33:59;7.13;;;5.72;;
52468;SDS011;38381;53.688;10.776;2022-09-29T10:39:03;6.65;;;5.57;;
52468;SDS011;38381;53.688;10.776;2022-09-29T10:44:13;6.32;;;5.05;;
52468;SDS011;38381;53.688;10.776;2022-09-29T10:49:20;7.28;;;5.75;;
52468;SDS011;38381;53.688;10.776;2022-09-29T10:54:23;6.50;;;5.40;;
52468;SDS011;38381;53.688;10.776;2022-09-29T10:59:25;11.20;;;6.03;;
52468;SDS011;38381;53.688;10.776;2022-09-29T11:04:30;6.57;;;5.80;;
52468;SDS011;38381;53.688;10.776;2022-09-29T11:09:39;7.78;;;5.13;;
52468;SDS011;38381;53.688;10.776;2022-09-29T11:14:41;6.68;;;6.05;;
52468;SDS011;38381;53.688;10.776;2022-09-29T11:19:41;8.15;;;5.35;;
52468;SDS011;38381;53.688;10.776;2022-09-29T11:30:06;7.33;;;6.10;;
52468;SDS011;38381;53.688;10.776;2022-09-29T11:40:28;5.35;;;4.65;;
52468;SDS011;38381;53.688;10.776;2022-09-29T11:51:05;8.45;;;5.55;;
52468;SDS011;38381;53.688;10.776;2022-09-29T12:07:04;8.07;;;6.10;;
52468;SDS011;38381;53.688;10.776;2022-09-29T12:12:43;9.82;;;7.65;;
52468;SDS011;38381;53.688;10.776;2022-09-29T12:17:58;12.10;;;7.90;;
52468;SDS011;38381;53.688;10.776;2022-09-29T12:23:03;10.27;;;7.68;;
52468;SDS011;38381;53.688;10.776;2022-09-29T12:28:11;9.23;;;8.30;;
52468;SDS011;38381;53.688;10.776;2022-09-29T12:38:38;9.45;;;8.55;;
52468;SDS011;38381;53.688;10.776;2022-09-29T12:54:28;9.38;;;8.48;;
52468;SDS011;38381;53.688;10.776;2022-09-29T13:27:06;5.50;;;4.95;;
52468;SDS011;38381;53.688;10.776;2022-09-29T13:32:39;8.85;;;5.65;;
52468;SDS011;38381;53.688;10.776;2022-09-29T13:37:47;8.25;;;5.72;;
52468;SDS011;38381;53.688;10.776;2022-09-29T13:48:36;8.88;;;6.28;;
52468;SDS011;38381;53.688;10.776;2022-09-29T13:53:45;5.85;;;5.22;;
52468;SDS011;38381;53.688;10.776;2022-09-29T14:03:46;7.05;;;6.30;;
52468;SDS011;38381;53.688;10.776;2022-09-29T14:08:48;13.40;;;8.82;;
52468;SDS011;38381;53.688;10.776;2022-09-29T14:13:54;6.55;;;5.88;;
52468;SDS011;38381;53.688;10.776;2022-09-29T14:19:06;8.70;;;6.00;;
52468;SDS011;38381;53.688;10.776;2022-09-29T14:29:42;7.60;;;6.80;;
52468;SDS011;38381;53.688;10.776;2022-09-29T14:34:49;12.00;;;7.72;;
52468;SDS011;38381;53.688;10.776;2022-09-29T14:40:01;7.25;;;6.38;;
52468;SDS011;38381;53.688;10.776;2022-09-29T14:45:24;10.30;;;8.32;;
52468;SDS011;38381;53.688;10.776;2022-09-29T14:50:46;6.80;;;6.05;;
52468;SDS011;38381;53.688;10.776;2022-09-29T15:07:17;6.72;;;5.85;;
52468;SDS011;38381;53.688;10.776;2022-09-29T15:12:23;14.32;;;6.97;;
52468;SDS011;38381;53.688;10.776;2022-09-29T15:17:35;8.35;;;6.68;;
52468;SDS011;38381;53.688;10.776;2022-09-29T15:22:57;7.25;;;6.55;;
52468;SDS011;38381;53.688;10.776;2022-09-29T15:28:16;9.93;;;8.67;;
52468;SDS011;38381;53.688;10.776;2022-09-29T15:33:19;8.00;;;7.30;;
52468;SDS011;38381;53.688;10.776;2022-09-29T15:49:20;9.15;;;7.57;;
52468;SDS011;38381;53.688;10.776;2022-09-29T15:54:34;9.68;;;8.05;;
52468;SDS011;38381;53.688;10.776;2022-09-29T15:59:48;7.68;;;6.97;;
52468;SDS011;38381;53.688;10.776;2022-09-29T16:04:54;9.00;;;6.80;;
52468;SDS011;38381;53.688;10.776;2022-09-29T16:09:58;7.50;;;6.30;;
52468;SDS011;38381;53.688;10.776;2022-09-29T16:15:09;7.53;;;5.45;;
52468;SDS011;38381;53.688;10.776;2022-09-29T16:20:18;4.50;;;3.45;;
52468;SDS011;38381;53.688;10.776;2022-09-29T16:25:26;5.10;;;3.88;;
52468;SDS011;38381;53.688;10.776;2022-09-29T16:30:29;5.28;;;4.18;;
52468;SDS011;38381;53.688;10.776;2022-09-29T16:40:50;4.57;;;3.60;;
52468;SDS011;38381;53.688;10.776;2022-09-29T16:45:52;6.28;;;4.22;;
52468;SDS011;38381;53.688;10.776;2022-09-29T16:50:56;4.22;;;3.75;;
52468;SDS011;38381;53.688;10.776;2022-09-29T16:56:00;3.85;;;3.05;;
52468;SDS011;38381;53.688;10.776;2022-09-29T17:01:05;4.93;;;3.95;;
52468;SDS011;38381;53.688;10.776;2022-09-29T17:11:08;3.28;;;2.97;;
52468;SDS011;38381;53.688;10.776;2022-09-29T17:16:09;5.20;;;4.00;;
52468;SDS011;38381;53.688;10.776;2022-09-29T17:26:17;3.28;;;2.28;;
52468;SDS011;38381;53.688;10.776;2022-09-29T17:31:37;3.40;;;2.67;;
52468;SDS011;38381;53.688;10.776;2022-09-29T17:36:38;3.50;;;3.20;;
52468;SDS011;38381;53.688;10.776;2022-09-29T17:41:38;4.05;;;2.58;;
52468;SDS011;38381;53.688;10.776;2022-09-29T17:46:39;3.03;;;2.63;;
52468;SDS011;38381;53.688;10.776;2022-09-29T17:51:39;5.00;;;2.77;;
52468;SDS011;38381;53.688;10.776;2022-09-29T17:56:40;3.60;;;3.20;;
52468;SDS011;38381;53.688;10.776;2022-09-29T18:01:42;5.13;;;3.38;;
52468;SDS011;38381;53.688;10.776;2022-09-29T18:06:43;4.53;;;3.42;;
52468;SDS011;38381;53.688;10.776;2022-09-29T18:11:43;3.40;;;2.80;;
52468;SDS011;38381;53.688;10.776;2022-09-29T18:16:44;3.75;;;3.40;;
52468;SDS011;38381;53.688;10.776;2022-09-29T18:21:44;4.77;;;3.37;;
52468;SDS011;38381;53.688;10.776;2022-09-29T18:26:45;4.18;;;3.45;;
52468;SDS011;38381;53.688;10.776;2022-09-29T18:31:46;4.90;;;3.70;;
52468;SDS011;38381;53.688;10.776;2022-09-29T18:36:46;3.83;;;3.25;;
52468;SDS011;38381;53.688;10.776;2022-09-29T18:41:46;3.88;;;3.00;;
52468;SDS011;38381;53.688;10.776;2022-09-29T18:46:47;7.75;;;3.70;;
52468;SDS011;38381;53.688;10.776;2022-09-29T18:51:47;4.20;;;3.60;;
52468;SDS011;38381;53.688;10.776;2022-09-29T18:56:51;5.40;;;3.65;;
52468;SDS011;38381;53.688;10.776;2022-09-29T19:01:51;4.22;;;3.70;;
52468;SDS011;38381;53.688;10.776;2022-09-29T19:06:52;4.03;;;2.88;;
52468;SDS011;38381;53.688;10.776;2022-09-29T19:11:52;4.72;;;3.92;;
52468;SDS011;38381;53.688;10.776;2022-09-29T19:16:52;4.03;;;3.63;;
52468;SDS011;38381;53.688;10.776;2022-09-29T19:21:54;5.18;;;4.03;;
52468;SDS011;38381;53.688;10.776;2022-09-29T19:26:54;5.17;;;3.73;;
52468;SDS011;38381;53.688;10.776;2022-09-29T19:31:54;5.55;;;4.78;;
52468;SDS011;38381;53.688;10.776;2022-09-29T19:36:54;5.22;;;4.50;;
52468;SDS011;38381;53.688;10.776;2022-09-29T19:41:55;5.72;;;4.57;;
52468;SDS011;38381;53.688;10.776;2022-09-29T19:46:55;6.53;;;5.57;;
52468;SDS011;38381;53.688;10.776;2022-09-29T19:51:55;6.57;;;5.82;;
52468;SDS011;38381;53.688;10.776;2022-09-29T19:57:00;6.25;;;5.65;;
52468;SDS011;38381;53.688;10.776;2022-09-29T20:02:11;7.60;;;6.80;;
52468;SDS011;38381;53.688;10.776;2022-09-29T20:07:13;7.95;;;6.88;;
52468;SDS011;38381;53.688;10.776;2022-09-29T20:12:13;9.50;;;7.13;;
52468;SDS011;38381;53.688;10.776;2022-09-29T20:17:16;10.38;;;7.78;;
52468;SDS011;38381;53.688;10.776;2022-09-29T20:22:19;7.93;;;6.75;;
52468;SDS011;38381;53.688;10.776;2022-09-29T20:27:19;9.63;;;6.47;;
52468;SDS011;38381;53.688;10.776;2022-09-29T20:32:19;7.50;;;6.80;;
52468;SDS011;38381;53.688;10.776;2022-09-29T20:37:20;9.00;;;7.27;;
52468;SDS011;38381;53.688;10.776;2022-09-29T20:42:20;8.25;;;7.45;;
52468;SDS011;38381;53.688;10.776;2022-09-29T20:47:21;9.32;;;7.68;;
52468;SDS011;38381;53.688;10.776;2022-09-29T20:57:24;9.07;;;7.53;;
52468;SDS011;38381;53.688;10.776;2022-09-29T21:02:24;8.52;;;7.05;;
52468;SDS011;38381;53.688;10.776;2022-09-29T21:07:24;8.60;;;7.23;;
52468;SDS011;38381;53.688;10.776;2022-09-29T21:12:37;6.95;;;6.25;;
52468;SDS011;38381;53.688;10.776;2022-09-29T21:17:38;7.10;;;5.90;;
52468;SDS011;38381;53.688;10.776;2022-09-29T21:22:38;6.90;;;5.93;;
52468;SDS011;38381;53.688;10.776;2022-09-29T21:27:38;5.53;;;5.00;;
52468;SDS011;38381;53.688;10.776;2022-09-29T21:32:39;5.72;;;4.95;;
52468;SDS011;38381;53.688;10.776;2022-09-29T21:37:39;5.63;;;5.03;;
52468;SDS011;38381;53.688;10.776;2022-09-29T21:42:39;6.00;;;5.38;;
52468;SDS011;38381;53.688;10.776;2022-09-29T21:47:40;7.68;;;5.72;;
52468;SDS011;38381;53.688;10.776;2022-09-29T21:52:59;7.15;;;5.68;;
52468;SDS011;38381;53.688;10.776;2022-09-29T21:57:59;5.97;;;5.38;;
52468;SDS011;38381;53.688;10.776;2022-09-29T22:02:59;7.18;;;5.03;;
52468;SDS011;38381;53.688;10.776;2022-09-29T22:08:00;4.87;;;4.40;;
52468;SDS011;38381;53.688;10.776;2022-09-29T22:13:00;5.78;;;4.65;;
52468;SDS011;38381;53.688;10.776;2022-09-29T22:18:00;4.95;;;4.40;;
52468;SDS011;38381;53.688;10.776;2022-09-29T22:23:01;6.00;;;5.40;;
52468;SDS011;38381;53.688;10.776;2022-09-29T22:28:02;8.70;;;5.25;;
52468;SDS011;38381;53.688;10.776;2022-09-29T22:33:02;5.30;;;4.80;;
52468;SDS011;38381;53.688;10.776;2022-09-29T22:38:03;5.10;;;4.60;;
52468;SDS011;38381;53.688;10.776;2022-09-29T22:43:07;4.53;;;3.92;;
52468;SDS011;38381;53.688;10.776;2022-09-29T22:48:07;4.68;;;4.28;;
52468;SDS011;38381;53.688;10.776;2022-09-29T22:53:08;4.90;;;4.40;;
52468;SDS011;38381;53.688;10.776;2022-09-29T22:58:09;4.78;;;4.30;;
52468;SDS011;38381;53.688;10.776;2022-09-29T23:03:10;5.50;;;4.78;;
52468;SDS011;38381;53.688;10.776;2022-09-29T23:08:10;6.10;;;5.20;;
52468;SDS011;38381;53.688;10.776;2022-09-29T23:13:10;6.70;;;6.05;;
52468;SDS011;38381;53.688;10.776;2022-09-29T23:18:11;6.63;;;5.77;;
52468;SDS011;38381;53.688;10.776;2022-09-29T23:23:12;6.50;;;5.90;;
52468;SDS011;38381;53.688;10.776;2022-09-29T23:28:12;10.90;;;5.60;;
52468;SDS011;38381;53.688;10.776;2022-09-29T23:33:12;7.40;;;6.35;;
52468;SDS011;38381;53.688;10.776;2022-09-29T23:38:13;9.27;;;6.95;;
52468;SDS011;38381;53.688;10.776;2022-09-29T23:43:32;8.18;;;6.85;;
52468;SDS011;38381;53.688;10.776;2022-09-29T23:48:32;8.50;;;6.70;;
52468;SDS011;38381;53.688;10.776;2022-09-29T23:53:32;7.65;;;6.93;;
52468;SDS011;38381;53.688;10.776;2022-09-29T23:58:33;7.20;;;6.45;;
